Terminal Aerodrome Forecast
Issued by NWS

Home | Current Version | Previous Version | Text Only | Print | Product List | Glossary Off
Versions: 1 2 3 4 5 6 7 8 9 10 11 12 13 14 15 16 17 18 19 20 21 22 23 24

505
FTUS43 KABR 090027 AAA
TAFATY
TAF AMD
KATY 090027Z 0900/0924 34017KT P6SM BKN150
     FM092300 35009KT P6SM OVC120=

USA.gov is the U.S. government's official web portal to all federal, state and local government web resources and services.